Time;durP1;ratioP1;P1;durP2;ratioP2;P2;SDS_P1;SDS_P2;PMS_P1;PMS_P2;Temp;Humidity;BMP_temperature;BMP_pressure;BME280_temperature;BME280_humidity;BME280_pressure;Samples;Min_cycle;Max_cycle;Signal;HPM_P1;HPM_P2
2021/08/02 00:02:04;;;;;;;7.60;3.47;;;;;;;15.47;79.95;101106.22;4822402;29;20479;-84
2021/08/02 00:12:42;;;;;;;;;;;;;;;;;;;;;
2021/08/02 00:33:27;;;;;;;4.80;2.50;;;;;;;15.44;79.68;101103.97;4778172;29;20445;-83
2021/08/02 00:47:25;;;;;;;16.70;10.50;;;;;;;15.57;79.03;101098.44;4887115;29;20454;-84
2021/08/02 00:54:16;;;;;;;8.47;4.47;;;;;;;15.31;79.51;101093.31;4929266;29;20433;-83
2021/08/02 01:04:32;;;;;;;54.60;34.63;;;;;;;15.38;78.36;101086.78;5007696;28;20475;-85
2021/08/02 01:08:01;;;;;;;7.43;1.33;;;;;;;15.31;78.51;101077.09;4964993;28;20454;-82
2021/08/02 01:14:36;;;;;;;;;;;;;;;;;;;;;
2021/08/02 01:21:03;;;;;;;;;;;;;;;;;;;;;
2021/08/02 01:27:47;;;;;;;2.40;1.30;;;;;;;15.35;78.59;101099.91;4913853;29;20432;-82
2021/08/02 01:58:57;;;;;;;;;;;;;;;;;;;;;
2021/08/02 02:02:11;;;;;;;;;;;;;;;;;;;;;
2021/08/02 02:26:27;;;;;;;;;;;;;;;;;;;;;
2021/08/02 02:29:54;;;;;;;;;;;;;;;;;;;;;
2021/08/02 02:36:46;;;;;;;6.13;3.57;;;;;;;15.15;78.24;101127.13;4792613;29;20442;-81
2021/08/02 02:51:11;;;;;;;;;;;;;;;;;;;;;
2021/08/02 03:12:09;;;;;;;3.90;2.53;;;;;;;15.17;79.37;101124.22;4824565;29;20461;-83
2021/08/02 03:18:36;;;;;;;4.33;3.07;;;;;;;15.28;78.60;101145.94;4863988;29;20448;-83
2021/08/02 03:46:12;;;;;;;5.80;4.20;;;;;;;14.87;82.18;101166.25;4769015;30;20459;-83
2021/08/02 03:53:08;;;;;;;;;;;;;;;;;;;;;
2021/08/02 04:03:09;;;;;;;5.63;3.50;;;;;;;14.43;80.31;101178.72;4890319;29;20506;-80
2021/08/02 04:17:19;;;;;;;;;;;;;;;;;;;;;
2021/08/02 04:37:36;;;;;;;3.80;2.50;;;;;;;14.32;82.32;101197.47;4838900;29;20432;-80
2021/08/02 05:18:11;;;;;;;8.87;7.40;;;;;;;14.97;82.09;101184.66;4864356;29;20459;-85
2021/08/02 05:24:31;;;;;;;16.67;10.63;;;;;;;14.85;83.00;101222.34;4889705;29;20441;-85
2021/08/02 05:27:41;;;;;;;19.23;13.77;;;;;;;14.98;82.18;101215.19;4952707;29;20450;-80
2021/08/02 05:30:15;;;;;;;7.90;3.80;;;;;;;14.94;81.98;101208.56;4970992;28;20454;-83
2021/08/02 05:33:14;;;;;;;21.23;11.67;;;;;;;14.77;82.02;101208.25;4967136;28;20458;-82
2021/08/02 05:36:03;;;;;;;9.17;4.57;;;;;;;14.32;81.13;101109.28;4971351;28;20451;-84
2021/08/02 05:38:32;;;;;;;12.77;8.73;;;;;;;14.14;81.37;101091.09;5008398;28;20436;-81
2021/08/02 05:41:27;;;;;;;37.50;28.67;;;;;;;14.08;82.18;101113.53;5043040;28;20455;-83
2021/08/02 05:50:56;;;;;;;26.83;21.60;;;;;;;14.33;82.48;101150.56;5008325;28;20467;-84
2021/08/02 05:53:22;;;;;;;12.33;6.83;;;;;;;14.16;82.29;101140.25;5021501;28;20444;-83
2021/08/02 05:55:47;;;;;;;21.53;13.03;;;;;;;13.96;82.71;101086.41;5025832;28;20177;-84
2021/08/02 06:02:44;;;;;;;8.90;5.50;;;;;;;14.82;82.24;101211.16;4995278;28;20220;-82
2021/08/02 06:05:13;;;;;;;15.07;9.53;;;;;;;15.00;82.15;101221.19;5013551;28;20435;-86
2021/08/02 06:07:54;;;;;;;11.97;6.23;;;;;;;14.81;83.11;101220.28;5023765;28;20462;-84
2021/08/02 06:10:37;;;;;;;9.10;6.63;;;;;;;14.90;82.05;101203.59;5020303;28;20455;-86
2021/08/02 06:13:10;;;;;;;11.17;7.87;;;;;;;14.29;81.26;101109.69;5023496;28;20456;-83
2021/08/02 06:15:53;;;;;;;38.23;23.67;;;;;;;14.89;82.99;101228.94;5021273;28;20444;-86
2021/08/02 06:18:18;;;;;;;21.03;13.43;;;;;;;14.04;82.83;101093.44;5019817;28;20451;-84
2021/08/02 06:20:44;;;;;;;24.70;17.10;;;;;;;14.25;82.65;101114.69;5025025;28;20448;-81
2021/08/02 06:23:18;;;;;;;17.97;13.43;;;;;;;14.83;82.48;101227.13;5022540;28;20447;-83
2021/08/02 06:26:04;;;;;;;518.87;358.00;;;;;;;14.86;82.36;101223.16;5027186;28;20213;-84
2021/08/02 06:28:33;;;;;;;55.80;31.20;;;;;;;14.07;82.00;101094.88;5026748;28;20471;-85
2021/08/02 06:31:01;;;;;;;30.83;21.30;;;;;;;14.67;81.58;101184.44;5038121;28;20447;-85
2021/08/02 06:33:27;;;;;;;36.90;27.00;;;;;;;13.82;82.11;101059.72;5022104;28;20442;-86
2021/08/02 06:35:53;;;;;;;9.47;4.73;;;;;;;13.62;82.86;101012.13;5022543;28;20446;-86
2021/08/02 06:38:18;;;;;;;40.13;24.63;;;;;;;14.83;83.34;101212.78;5022630;28;20437;-86
2021/08/02 06:40:44;;;;;;;152.83;97.23;;;;;;;13.28;82.35;100948.66;5021012;28;20201;-84
2021/08/02 06:43:10;;;;;;;80.43;45.10;;;;;;;15.05;81.09;101213.28;5028350;28;20233;-84
2021/08/02 06:45:35;;;;;;;20.97;12.80;;;;;;;14.54;82.17;101161.06;5021508;28;20240;-84
2021/08/02 06:48:01;;;;;;;136.77;83.43;;;;;;;14.02;80.14;101028.09;5022640;28;20181;-84
2021/08/02 06:50:26;;;;;;;11.20;7.47;;;;;;;14.78;80.31;101154.06;5024276;28;20209;-85
2021/08/02 06:52:55;;;;;;;7.23;6.47;;;;;;;14.36;79.64;101107.78;5019110;28;20178;-84
2021/08/02 06:55:21;;;;;;;10.20;6.37;;;;;;;14.70;79.32;101157.03;5023009;28;20185;-83
2021/08/02 06:57:57;;;;;;;16.80;13.13;;;;;;;14.67;78.83;101144.78;5017983;28;20455;-84
2021/08/02 07:00:34;;;;;;;12.70;9.10;;;;;;;15.23;77.97;101236.81;5021192;28;20223;-84
2021/08/02 07:03:02;;;;;;;4.03;3.37;;;;;;;15.05;78.21;101233.00;5022221;28;20427;-84
2021/08/02 07:05:31;;;;;;;406.97;311.90;;;;;;;14.89;77.90;101209.22;5020942;28;20467;-83
2021/08/02 07:07:56;;;;;;;231.33;175.60;;;;;;;14.65;80.00;101198.16;5022697;28;20447;-81
2021/08/02 07:10:22;;;;;;;20.33;14.00;;;;;;;15.25;79.91;101237.44;5023698;28;20479;-83
2021/08/02 07:12:47;;;;;;;6.27;5.47;;;;;;;14.61;79.77;101172.66;5038929;28;20185;-83
2021/08/02 07:15:13;;;;;;;20.07;10.33;;;;;;;14.62;79.40;101112.19;5018203;28;20262;-84
2021/08/02 07:17:38;;;;;;;47.23;27.10;;;;;;;12.75;79.00;100787.31;5018918;28;20681;-84
2021/08/02 07:20:05;;;;;;;22.33;16.13;;;;;;;14.86;80.88;101183.47;5019900;28;20237;-84
2021/08/02 07:22:51;;;;;;;48.03;31.47;;;;;;;14.95;78.54;101150.78;5025100;28;20192;-85
2021/08/02 07:25:25;;;;;;;39.00;28.00;;;;;;;15.20;79.55;101219.19;5018418;28;20431;-84
2021/08/02 07:27:51;;;;;;;23.20;15.03;;;;;;;15.47;78.83;101229.75;5017575;28;20447;-80
2021/08/02 07:30:20;;;;;;;16.40;9.27;;;;;;;15.08;80.96;101178.53;5021953;28;20444;-83
2021/08/02 07:32:46;;;;;;;39.97;24.47;;;;;;;14.86;81.08;101164.56;5015410;28;20447;-80
2021/08/02 07:35:11;;;;;;;54.57;38.63;;;;;;;14.94;82.73;101192.38;5014365;28;20499;-77
2021/08/02 07:37:54;;;;;;;52.20;31.40;;;;;;;15.13;82.00;101288.66;5016138;28;22905;-83
2021/08/02 07:43:39;;;;;;;31.87;12.13;;;;;;;15.35;81.25;101292.63;5017267;28;20444;-84
2021/08/02 07:46:32;;;;;;;58.73;30.70;;;;;;;15.11;81.48;101267.25;5022073;28;20443;-85
2021/08/02 07:49:01;;;;;;;37.23;26.17;;;;;;;15.08;82.07;101265.00;5020904;28;20436;-83
2021/08/02 07:51:28;;;;;;;46.33;32.03;;;;;;;15.01;83.30;101279.56;5022579;28;20467;-85
2021/08/02 07:53:55;;;;;;;85.53;47.33;;;;;;;14.48;84.90;101218.56;5023400;28;20468;-85
2021/08/02 07:56:21;;;;;;;60.60;34.40;;;;;;;14.93;83.49;101248.25;5019225;28;20455;-87
2021/08/02 07:58:49;;;;;;;133.00;84.53;;;;;;;14.72;82.01;101189.19;5026588;28;20444;-84
2021/08/02 08:01:15;;;;;;;141.30;84.97;;;;;;;13.83;80.79;101024.47;5020723;28;20208;-86
2021/08/02 08:03:44;;;;;;;4.23;3.53;;;;;;;14.37;81.74;101105.91;5018792;28;20468;-85
2021/08/02 08:06:10;;;;;;;70.07;46.70;;;;;;;15.22;82.61;101256.81;5022528;28;20177;-85
2021/08/02 08:08:35;;;;;;;93.97;63.53;;;;;;;14.50;83.43;101161.69;5022979;28;20527;-85
2021/08/02 08:11:15;;;;;;;39.97;27.20;;;;;;;13.17;81.66;100888.19;5019585;28;20201;-85
2021/08/02 08:13:44;;;;;;;61.67;41.93;;;;;;;15.93;81.58;101282.63;5023204;28;20272;-86
2021/08/02 08:16:13;;;;;;;101.27;64.23;;;;;;;15.74;82.20;101246.63;5020521;28;20432;-85
2021/08/02 08:18:41;;;;;;;183.53;120.07;;;;;;;15.50;80.78;101218.50;5020845;28;20431;-83
2021/08/02 08:21:10;;;;;;;96.27;58.70;;;;;;;15.45;83.67;101256.16;5018666;28;20931;-83
2021/08/02 08:23:39;;;;;;;158.40;104.53;;;;;;;15.10;83.97;101149.44;5021009;28;20467;-86
2021/08/02 08:26:04;;;;;;;274.27;186.07;;;;;;;15.41;84.14;101247.69;5021130;28;20436;-85
2021/08/02 08:28:30;;;;;;;228.37;134.07;;;;;;;15.79;83.11;101266.53;5021332;28;20440;-84
2021/08/02 08:30:56;;;;;;;205.20;118.93;;;;;;;16.06;81.15;101262.72;5020540;28;20231;-84
2021/08/02 08:33:33;;;;;;;160.30;98.40;;;;;;;15.46;81.80;101158.66;5021744;28;20181;-85
2021/08/02 08:35:59;;;;;;;232.30;169.57;;;;;;;16.00;76.26;101299.63;5018673;28;20184;-84
2021/08/02 08:38:24;;;;;;;9.07;6.03;;;;;;;15.23;73.61;101153.88;5019568;28;20445;-83
2021/08/02 08:40:53;;;;;;;9.20;7.00;;;;;;;14.60;75.27;101016.28;5020574;28;20210;-84
2021/08/02 08:43:19;;;;;;;4.03;3.63;;;;;;;16.08;75.28;101233.53;5020819;28;20244;-84
2021/08/02 08:45:46;;;;;;;262.80;181.00;;;;;;;16.48;73.78;101269.09;5019477;28;20440;-81
2021/08/02 08:48:14;;;;;;;67.73;51.23;;;;;;;16.38;69.83;101237.16;5027765;28;20479;-80
2021/08/02 08:50:42;;;;;;;5.03;2.07;;;;;;;16.41;69.55;101246.69;5019056;28;20483;-79
2021/08/02 08:53:10;;;;;;;1.40;1.10;;;;;;;15.98;70.20;101151.03;5014567;28;20444;-80
2021/08/02 08:55:40;;;;;;;4.80;1.87;;;;;;;16.76;69.30;101260.41;5009036;28;20433;-81
2021/08/02 08:58:06;;;;;;;2.70;0.80;;;;;;;17.07;69.10;101258.53;5012180;28;20498;-82
2021/08/02 09:00:34;;;;;;;2.13;1.20;;;;;;;17.21;68.84;101269.97;5016484;28;20460;-81
2021/08/02 09:03:12;;;;;;;5.50;4.03;;;;;;;16.30;66.96;101158.94;5016575;28;20714;-79
2021/08/02 09:05:38;;;;;;;2.97;1.20;;;;;;;17.02;68.57;101272.75;5016236;28;20432;-80
2021/08/02 09:08:05;;;;;;;3.70;2.27;;;;;;;16.59;69.67;101188.97;5016603;28;20510;-81
2021/08/02 09:10:31;;;;;;;3.20;1.53;;;;;;;16.99;66.60;101281.34;5014577;28;20463;-79
2021/08/02 09:13:00;;;;;;;3.20;1.10;;;;;;;16.60;66.07;101215.81;5011483;28;20439;-80
2021/08/02 09:15:47;;;;;;;3.63;2.47;;;;;;;16.70;66.18;101239.66;5010011;28;20522;-78
2021/08/02 09:18:20;;;;;;;4.20;1.00;;;;;;;16.82;67.15;101264.91;5010336;28;20439;-79
2021/08/02 09:20:46;;;;;;;3.00;1.20;;;;;;;16.63;68.63;101207.22;5010267;28;20477;-79
2021/08/02 09:23:13;;;;;;;3.30;1.13;;;;;;;17.30;67.77;101296.53;5010756;28;20456;-79
2021/08/02 09:25:50;;;;;;;174.53;109.33;;;;;;;17.20;67.42;101290.84;5020133;28;20189;-79
2021/08/02 09:28:22;;;;;;;328.00;274.57;;;;;;;16.65;69.45;101177.22;5008418;28;20524;-79
2021/08/02 09:30:52;;;;;;;313.57;238.60;;;;;;;17.52;67.18;101290.56;5016149;28;20472;-79
2021/08/02 09:33:17;;;;;;;2.90;1.73;;;;;;;16.92;64.22;101208.31;5024056;28;20447;-80
2021/08/02 09:35:48;;;;;;;1.77;1.27;;;;;;;17.22;65.28;101296.03;5006894;28;20451;-80
2021/08/02 09:38:14;;;;;;;4.13;3.10;;;;;;;16.97;65.05;101261.78;5014204;28;20197;-79
2021/08/02 09:40:43;;;;;;;1.13;0.80;;;;;;;16.08;65.29;101142.38;5006845;28;20480;-80
2021/08/02 09:43:14;;;;;;;8.53;5.97;;;;;;;16.68;64.40;101242.56;5008889;28;20452;-78
2021/08/02 09:45:47;;;;;;;1.67;0.80;;;;;;;17.18;63.84;101317.34;5010147;28;20519;-79
2021/08/02 09:48:17;;;;;;;8.40;5.50;;;;;;;16.83;62.72;101285.53;5022439;28;20480;-78
2021/08/02 09:50:43;;;;;;;1.33;0.90;;;;;;;17.40;63.40;101309.53;5006676;28;20483;-79
2021/08/02 09:53:14;;;;;;;1.27;1.27;;;;;;;17.32;64.83;101305.25;5008045;28;20449;-78
2021/08/02 09:55:43;;;;;;;7.43;1.33;;;;;;;16.85;65.62;101250.09;5007611;28;20437;-79
2021/08/02 09:58:10;;;;;;;0.50;0.50;;;;;;;16.21;65.38;101134.09;5008560;28;20453;-79
2021/08/02 10:00:38;;;;;;;2.63;1.57;;;;;;;17.45;64.95;101306.94;5005762;28;20473;-78
2021/08/02 10:03:04;;;;;;;3.00;1.23;;;;;;;17.50;65.30;101308.94;5005002;28;20445;-81
2021/08/02 10:05:29;;;;;;;1.67;1.47;;;;;;;16.96;64.98;101222.22;5007292;28;20480;-79
2021/08/02 10:07:56;;;;;;;11.50;6.33;;;;;;;17.50;64.93;101317.06;5014830;28;20444;-78
2021/08/02 10:10:21;;;;;;;9.77;4.17;;;;;;;16.16;64.25;101116.88;5006790;28;20700;-78
2021/08/02 10:12:48;;;;;;;3.53;1.87;;;;;;;17.31;65.20;101276.50;5007242;28;20452;-79
2021/08/02 10:15:20;;;;;;;2.77;1.17;;;;;;;17.42;65.32;101250.47;5007285;28;20202;-79
2021/08/02 10:17:51;;;;;;;41.37;15.80;;;;;;;17.58;65.88;101311.31;5010723;28;20443;-80
2021/08/02 10:20:21;;;;;;;59.20;37.80;;;;;;;16.85;66.83;101228.41;5007658;28;20615;-78
2021/08/02 10:22:47;;;;;;;6.17;2.53;;;;;;;17.45;68.28;101311.53;5007327;28;20439;-81
2021/08/02 10:25:12;;;;;;;8.30;1.53;;;;;;;17.57;68.02;101315.09;5007059;28;20827;-78
2021/08/02 10:27:39;;;;;;;7.10;3.53;;;;;;;17.28;64.56;101306.78;5007946;28;20231;-79
2021/08/02 10:30:19;;;;;;;1.37;0.67;;;;;;;17.54;64.34;101332.66;5007363;28;20300;-79
2021/08/02 10:32:57;;;;;;;1.13;1.07;;;;;;;16.87;64.23;101191.91;5010274;28;20443;-79
2021/08/02 10:35:42;;;;;;;1.60;1.50;;;;;;;17.70;63.86;101328.41;5008660;28;20468;-80
2021/08/02 10:38:14;;;;;;;1.67;0.70;;;;;;;17.49;63.50;101302.69;5006651;28;20476;-79
2021/08/02 10:40:46;;;;;;;1.80;0.73;;;;;;;17.98;63.60;101318.81;5012336;28;20469;-78
2021/08/02 10:43:12;;;;;;;11.47;5.30;;;;;;;18.09;61.34;101322.59;5012028;28;20483;-78
2021/08/02 10:45:39;;;;;;;1.70;1.20;;;;;;;18.23;62.75;101337.56;5005042;28;20472;-79
2021/08/02 10:48:06;;;;;;;27.30;19.13;;;;;;;17.82;61.48;101247.09;5004368;28;20440;-78
2021/08/02 10:50:41;;;;;;;4.67;1.63;;;;;;;17.53;61.81;101200.84;5006750;28;20964;-78
2021/08/02 10:53:19;;;;;;;1.80;1.00;;;;;;;18.39;61.44;101319.72;5013123;28;20508;-78
2021/08/02 10:55:52;;;;;;;4.43;2.47;;;;;;;18.41;62.01;101326.56;5018536;28;20550;-79
2021/08/02 10:58:26;;;;;;;7.83;5.10;;;;;;;18.22;62.32;101315.00;5006435;28;20440;-79
2021/08/02 11:01:00;;;;;;;3.87;1.10;;;;;;;18.20;61.64;101291.88;5004985;28;20473;-78
2021/08/02 11:03:30;;;;;;;3.83;2.43;;;;;;;17.93;63.69;101272.53;5005020;28;21167;-79
2021/08/02 11:05:58;;;;;;;3.60;1.20;;;;;;;18.41;63.42;101315.69;5004818;28;20803;-80
2021/08/02 11:08:24;;;;;;;3.07;2.63;;;;;;;18.16;64.76;101326.00;5003782;28;20472;-78
2021/08/02 11:10:50;;;;;;;58.83;38.47;;;;;;;17.76;65.88;101297.66;5002332;28;20876;-78
2021/08/02 11:13:26;;;;;;;6.20;3.40;;;;;;;17.76;65.95;101270.53;5014639;28;20194;-79
2021/08/02 11:15:52;;;;;;;4.83;1.73;;;;;;;17.76;65.57;101248.84;5014229;28;20623;-79
2021/08/02 11:18:25;;;;;;;18.90;14.07;;;;;;;17.95;65.83;101306.53;5005916;28;20464;-79
2021/08/02 11:20:51;;;;;;;12.30;7.33;;;;;;;18.03;65.33;101284.47;5011909;28;20568;-79
2021/08/02 11:23:16;;;;;;;22.77;17.03;;;;;;;18.48;63.94;101331.84;5010475;28;20480;-79
2021/08/02 11:25:42;;;;;;;2.67;2.10;;;;;;;18.07;63.36;101263.09;5011577;28;20439;-80
2021/08/02 11:28:08;;;;;;;2.00;1.00;;;;;;;17.87;63.26;101263.47;5010226;28;20216;-79
2021/08/02 11:30:34;;;;;;;3.03;2.10;;;;;;;17.86;62.41;101212.16;5010263;28;20209;-79
2021/08/02 11:33:00;;;;;;;3.50;0.77;;;;;;;18.19;62.61;101258.47;5011626;28;20208;-78
2021/08/02 11:35:36;;;;;;;14.33;10.60;;;;;;;18.45;60.14;101316.03;5009998;28;20428;-78
2021/08/02 11:38:03;;;;;;;2.37;2.00;;;;;;;18.66;60.77;101312.69;5006763;28;20217;-78
2021/08/02 11:40:37;;;;;;;198.70;115.07;;;;;;;18.74;59.54;101323.19;5006500;28;20480;-78
2021/08/02 11:43:04;;;;;;;1.77;0.87;;;;;;;18.50;59.79;101321.56;5013134;28;20448;-79
2021/08/02 11:45:33;;;;;;;1.73;0.80;;;;;;;18.29;60.15;101280.41;5008138;28;20448;-77
2021/08/02 11:48:02;;;;;;;4.63;3.30;;;;;;;17.79;61.03;101233.97;5002278;28;20466;-79
2021/08/02 11:50:31;;;;;;;1.40;1.00;;;;;;;18.07;60.42;101238.66;5007065;28;20464;-79
2021/08/02 11:52:59;;;;;;;5.10;4.23;;;;;;;18.56;59.40;101336.91;5008935;28;20439;-78
2021/08/02 11:55:25;;;;;;;6.97;3.30;;;;;;;18.37;59.03;101309.09;5007859;28;20556;-78
2021/08/02 11:57:58;;;;;;;0.97;0.60;;;;;;;18.73;59.45;101337.00;5006631;28;20547;-83
2021/08/02 12:00:23;;;;;;;2.07;1.63;;;;;;;18.30;59.30;101286.66;5022126;28;20224;-79
2021/08/02 12:02:50;;;;;;;0.83;0.60;;;;;;;18.49;60.35;101306.34;5006577;28;20453;-79
2021/08/02 12:05:22;;;;;;;1.20;0.70;;;;;;;18.92;60.67;101343.13;5006565;28;20189;-78
2021/08/02 12:07:48;;;;;;;3.50;1.10;;;;;;;18.79;59.96;101308.88;5005083;28;20799;-77
2021/08/02 12:10:21;;;;;;;1.17;0.50;;;;;;;18.40;59.27;101275.19;5004448;28;20460;-78
2021/08/02 12:13:07;;;;;;;1.33;0.60;;;;;;;18.67;59.03;101327.09;5011027;28;20223;-79
2021/08/02 12:15:34;;;;;;;15.23;2.80;;;;;;;18.87;60.44;101353.88;5002995;28;20448;-78
2021/08/02 12:18:00;;;;;;;3.00;0.83;;;;;;;18.49;62.00;101349.81;5000016;28;21030;-77
2021/08/02 12:20:31;;;;;;;2.30;0.83;;;;;;;18.48;61.28;101351.69;5006574;28;20475;-78
2021/08/02 12:22:57;;;;;;;3.43;0.80;;;;;;;18.15;58.93;101238.28;5019872;28;20216;-75
2021/08/02 12:25:43;;;;;;;3.33;0.70;;;;;;;19.14;58.20;101335.09;5011666;28;20452;-78
2021/08/02 12:28:09;;;;;;;0.63;0.60;;;;;;;19.03;57.01;101333.25;5006303;28;20220;-77
2021/08/02 12:30:39;;;;;;;1.80;0.60;;;;;;;18.80;56.87;101304.25;5004951;28;20460;-77
2021/08/02 12:33:06;;;;;;;0.80;0.50;;;;;;;18.94;57.01;101327.38;5005495;28;20444;-78
2021/08/02 12:35:32;;;;;;;1.10;0.60;;;;;;;19.02;57.80;101351.44;5005220;28;20858;-79
2021/08/02 12:38:00;;;;;;;0.70;0.70;;;;;;;19.22;58.73;101359.16;5003347;28;21031;-80
2021/08/02 12:40:26;;;;;;;1.03;0.70;;;;;;;18.96;58.56;101327.97;5004433;28;21014;-78
2021/08/02 12:42:51;;;;;;;3.37;0.80;;;;;;;18.88;58.91;101291.09;5006199;28;20452;-79
2021/08/02 12:45:18;;;;;;;1.80;0.80;;;;;;;18.87;58.46;101262.28;5003287;28;20445;-79
2021/08/02 12:47:44;;;;;;;2.60;0.73;;;;;;;18.96;57.61;101336.13;5020742;28;20189;-78
2021/08/02 12:50:11;;;;;;;1.70;0.77;;;;;;;18.91;58.86;101371.34;5001752;28;20956;-78
2021/08/02 12:52:37;;;;;;;0.80;0.60;;;;;;;18.78;59.40;101323.53;5001944;28;20447;-79
2021/08/02 12:55:05;;;;;;;0.60;0.60;;;;;;;18.67;59.71;101281.72;5007507;28;20452;-79
2021/08/02 12:57:33;;;;;;;1.33;0.70;;;;;;;18.93;60.32;101350.19;5003130;28;21395;-78
2021/08/02 13:00:00;;;;;;;3.93;0.90;;;;;;;17.98;59.59;101229.25;5004687;28;20465;-78
2021/08/02 13:02:29;;;;;;;1.53;0.70;;;;;;;19.24;59.06;101378.81;5006869;28;20483;-78
2021/08/02 13:04:56;;;;;;;1.60;0.80;;;;;;;19.02;59.46;101361.50;5004202;28;20531;-78
2021/08/02 13:07:23;;;;;;;1.33;0.60;;;;;;;18.33;60.87;101290.78;5005329;28;20452;-80
2021/08/02 13:09:49;;;;;;;3.70;1.73;;;;;;;18.83;61.13;101374.44;5020543;28;20468;-78
2021/08/02 13:12:17;;;;;;;2.10;0.60;;;;;;;19.03;60.14;101371.31;5003545;28;20455;-79
2021/08/02 13:14:43;;;;;;;1.67;0.70;;;;;;;17.56;61.37;101181.38;5020233;28;21038;-80
2021/08/02 13:17:09;;;;;;;0.80;0.60;;;;;;;18.85;61.85;101370.41;5003202;28;20441;-79
2021/08/02 13:19:34;;;;;;;3.27;0.90;;;;;;;18.97;61.60;101356.78;5007296;28;20467;-79
2021/08/02 13:22:00;;;;;;;1.40;0.60;;;;;;;18.29;60.63;101296.72;5007845;28;20216;-79
2021/08/02 13:27:10;;;;;;;0.70;0.60;;;;;;;18.81;59.66;101322.25;5003823;28;20509;-79
2021/08/02 13:29:37;;;;;;;0.97;0.60;;;;;;;18.74;60.75;101315.03;5005448;28;20447;-79
2021/08/02 13:32:05;;;;;;;3.20;0.60;;;;;;;19.18;60.58;101383.31;5002194;28;20191;-79
2021/08/02 13:34:32;;;;;;;1.67;0.70;;;;;;;19.19;59.41;101322.41;5021928;28;21906;-79
2021/08/02 13:36:59;;;;;;;0.93;0.50;;;;;;;19.61;58.81;101368.31;5007411;28;20475;-79
2021/08/02 13:39:26;;;;;;;1.80;0.70;;;;;;;19.94;57.57;101365.88;5005468;28;20548;-80
2021/08/02 13:41:51;;;;;;;0.80;0.60;;;;;;;19.74;57.17;101363.66;5005418;28;20484;-79
2021/08/02 13:44:17;;;;;;;1.10;0.70;;;;;;;19.33;57.47;101292.19;5008675;28;20443;-79
2021/08/02 13:46:43;;;;;;;1.27;0.60;;;;;;;19.80;57.10;101359.94;5010236;28;20313;-80
2021/08/02 13:49:11;;;;;;;0.53;0.53;;;;;;;18.74;56.94;101268.84;5006258;28;20268;-79
2021/08/02 13:51:38;;;;;;;1.20;0.60;;;;;;;19.50;56.23;101373.78;5007182;28;20205;-78
2021/08/02 13:54:09;;;;;;;2.77;0.70;;;;;;;19.27;57.38;101366.63;5006763;28;20467;-79
2021/08/02 13:56:35;;;;;;;1.30;0.70;;;;;;;18.84;57.85;101294.56;5006859;28;20475;-79
2021/08/02 13:59:00;;;;;;;0.80;0.60;;;;;;;19.04;58.13;101319.41;5005159;28;20523;-80
2021/08/02 14:01:29;;;;;;;0.77;0.60;;;;;;;18.67;57.44;101232.81;5006396;28;20217;-79
2021/08/02 14:03:55;;;;;;;1.70;0.60;;;;;;;19.71;57.28;101369.59;5004222;28;20268;-78
2021/08/02 14:06:21;;;;;;;0.93;0.80;;;;;;;19.49;56.19;101343.06;5002597;28;20455;-78
2021/08/02 14:08:47;;;;;;;1.60;0.60;;;;;;;19.90;55.04;101378.31;5005425;28;20917;-79
2021/08/02 14:11:25;;;;;;;1.83;0.53;;;;;;;19.46;55.83;101375.38;5007876;28;20619;-79
2021/08/02 14:13:56;;;;;;;1.40;0.50;;;;;;;19.08;55.69;101361.34;5008494;28;20460;-79
2021/08/02 14:16:28;;;;;;;1.23;0.60;;;;;;;18.70;56.20;101364.66;5005571;28;20439;-79
2021/08/02 14:19:11;;;;;;;0.40;0.40;;;;;;;19.06;55.68;101347.16;5006761;28;20444;-80
2021/08/02 14:21:38;;;;;;;1.30;0.60;;;;;;;19.19;55.76;101386.84;5004811;28;20460;-79
2021/08/02 14:24:06;;;;;;;1.37;0.63;;;;;;;19.24;55.64;101392.41;5004230;28;20494;-78
2021/08/02 14:26:32;;;;;;;0.60;0.50;;;;;;;18.60;56.78;101359.84;5002767;28;20447;-78
2021/08/02 14:29:04;;;;;;;2.17;0.60;;;;;;;18.56;56.67;101274.44;5008849;28;20437;-81
2021/08/02 14:31:31;;;;;;;1.90;0.60;;;;;;;19.17;55.78;101368.03;5003427;28;20464;-79
2021/08/02 14:33:56;;;;;;;1.00;0.60;;;;;;;19.75;55.13;101368.81;5006522;28;20459;-78
2021/08/02 14:36:25;;;;;;;1.47;0.50;;;;;;;19.42;55.10;101326.06;5003192;28;20440;-79
2021/08/02 14:39:02;;;;;;;0.80;0.50;;;;;;;19.53;54.73;101378.78;5006244;28;20566;-78
2021/08/02 14:41:37;;;;;;;0.50;0.50;;;;;;;19.61;56.73;101373.75;5004161;28;20857;-79
2021/08/02 14:44:06;;;;;;;2.83;0.60;;;;;;;18.97;58.46;101295.09;5014290;28;20449;-80
2021/08/02 14:46:33;;;;;;;1.37;0.70;;;;;;;19.67;59.23;101380.13;5006979;28;20450;-79
2021/08/02 14:49:04;;;;;;;1.80;0.60;;;;;;;19.45;58.03;101384.63;5004150;28;20440;-79
2021/08/02 14:51:33;;;;;;;2.70;0.70;;;;;;;19.19;58.81;101389.56;5003956;28;20498;-78
2021/08/02 14:54:04;;;;;;;2.33;0.80;;;;;;;19.19;60.05;101387.69;5006047;28;20443;-79
2021/08/02 14:56:34;;;;;;;0.93;0.57;;;;;;;18.90;60.51;101301.75;5006788;28;20474;-79
2021/08/02 14:59:01;;;;;;;2.37;0.67;;;;;;;19.37;61.49;101380.38;5023843;28;20518;-79
2021/08/02 15:01:35;;;;;;;0.87;0.60;;;;;;;18.70;61.70;101327.44;5006422;28;20480;-80
2021/08/02 15:04:02;;;;;;;2.40;0.60;;;;;;;18.36;61.15;101214.28;5006427;28;20443;-79
2021/08/02 15:06:30;;;;;;;0.70;0.50;;;;;;;19.22;61.19;101388.28;5023189;28;20934;-79
2021/08/02 15:09:07;;;;;;;0.77;0.60;;;;;;;18.83;60.51;101391.56;5007005;28;20505;-78
2021/08/02 15:11:35;;;;;;;1.43;0.60;;;;;;;19.09;59.30;101354.00;5009858;28;20460;-78
2021/08/02 15:14:02;;;;;;;1.33;0.70;;;;;;;19.13;58.51;101395.97;5009062;28;20451;-78
2021/08/02 15:16:38;;;;;;;1.07;0.67;;;;;;;18.83;58.17;101291.00;5014199;28;20443;-79
2021/08/02 15:19:08;;;;;;;1.33;0.63;;;;;;;19.28;60.18;101384.56;5006530;28;20439;-78
2021/08/02 15:21:40;;;;;;;2.97;1.00;;;;;;;19.25;59.98;101353.25;5007880;28;20468;-79
2021/08/02 15:24:08;;;;;;;3.80;0.70;;;;;;;19.30;59.71;101328.03;5008965;28;20467;-80
2021/08/02 15:26:40;;;;;;;1.50;0.67;;;;;;;19.22;59.87;101334.69;5007801;28;20440;-78
2021/08/02 15:29:06;;;;;;;1.23;0.60;;;;;;;19.07;58.88;101361.63;5006852;28;20436;-78
2021/08/02 15:31:35;;;;;;;1.20;0.67;;;;;;;19.40;59.22;101404.38;5007422;28;20466;-78
2021/08/02 15:34:03;;;;;;;1.37;0.60;;;;;;;19.36;58.59;101371.41;5009177;28;21015;-79
2021/08/02 15:36:41;;;;;;;0.77;0.60;;;;;;;19.31;59.45;101384.91;5008600;28;20459;-79
2021/08/02 15:39:13;;;;;;;2.40;0.60;;;;;;;18.93;59.08;101377.38;5006657;28;20499;-79
2021/08/02 15:41:38;;;;;;;0.70;0.50;;;;;;;19.05;59.09;101375.44;5020474;28;20503;-79
2021/08/02 15:44:05;;;;;;;1.53;0.50;;;;;;;18.58;59.34;101288.59;5007959;28;20443;-79
2021/08/02 15:46:31;;;;;;;1.00;0.70;;;;;;;19.25;58.93;101376.91;5016136;28;20486;-79
2021/08/02 15:48:59;;;;;;;1.27;0.70;;;;;;;18.59;57.24;101294.84;5010508;28;20951;-78
2021/08/02 15:51:38;;;;;;;0.93;0.60;;;;;;;19.07;58.36;101405.13;5012617;28;20491;-79
2021/08/02 15:54:05;;;;;;;1.33;0.60;;;;;;;19.29;57.80;101402.53;5023004;28;20447;-79
2021/08/02 15:56:36;;;;;;;1.87;0.60;;;;;;;19.29;58.36;101394.38;5004143;28;20467;-79
2021/08/02 15:59:13;;;;;;;0.60;0.60;;;;;;;19.12;58.29;101403.31;5022239;28;20483;-78
2021/08/02 16:01:40;;;;;;;2.47;0.80;;;;;;;18.45;59.85;101299.72;5013254;28;20472;-79
2021/08/02 16:04:10;;;;;;;1.43;0.50;;;;;;;19.23;59.84;101401.59;5010801;28;20455;-78
2021/08/02 16:06:49;;;;;;;3.53;1.13;;;;;;;18.41;61.47;101351.00;5003667;28;20431;-78
2021/08/02 16:09:16;;;;;;;2.40;0.60;;;;;;;18.56;62.18;101401.28;5013764;28;20428;-79
2021/08/02 16:11:53;;;;;;;1.10;0.60;;;;;;;18.71;62.37;101398.88;5006788;28;20518;-79
2021/08/02 16:14:22;;;;;;;0.93;0.70;;;;;;;18.75;62.65;101405.56;5007333;28;20475;-79
2021/08/02 16:16:51;;;;;;;1.90;0.70;;;;;;;18.22;62.17;101380.16;5006270;28;20512;-79
2021/08/02 16:19:18;;;;;;;0.80;0.53;;;;;;;18.32;61.83;101329.88;5014485;28;20455;-79
2021/08/02 16:21:43;;;;;;;0.60;0.60;;;;;;;18.82;61.67;101367.38;5006888;28;20448;-79
2021/08/02 16:24:09;;;;;;;1.67;0.50;;;;;;;19.12;60.91;101408.75;5006124;28;20502;-79